Mecca, Ohio
Current Conditions -  °F | °C
As of 8:51 PM on Thursday 20 Nov 2014 (Local Time) from KYNG Reporting Station
Light Snow Light Snow  
Wind Chill:   Ceiling: 3200
Heat Index: 20°   Visibility: 3mi
Dew Point: 17°   Wind: 10mph
Humidity: 89%   Direction: 250°WSW
Pressure: 30.05"   Gusts: NA
Location:  41.3436°N, 80.7192°W
Report Text: KYNG 210151Z 25009KT 3SM -SN BR FEW016 OVC032 M07/M08 A3005 RMK AO2 SNB0058 SLP195 P0000 T10671083
Loading
Personal Weather Stations






























Interactive Weather Map New forecast layout! Learn more

10-Day Weather Forecast

Advertisements
Track Severe Weather on mobile